sensor_id;sensor_type;location;lat;lon;timestamp;P1;durP1;ratioP1;P2;durP2;ratioP2
57730;SDS011;43570;47.476;19.040;2022-12-29T00:01:37;28.25;;;21.95;;
57730;SDS011;43570;47.476;19.040;2022-12-29T00:04:03;26.98;;;22.08;;
57730;SDS011;43570;47.476;19.040;2022-12-29T00:06:29;28.10;;;21.65;;
57730;SDS011;43570;47.476;19.040;2022-12-29T00:08:54;26.42;;;21.95;;
57730;SDS011;43570;47.476;19.040;2022-12-29T00:11:20;28.02;;;21.23;;
57730;SDS011;43570;47.476;19.040;2022-12-29T00:13:47;25.33;;;20.48;;
57730;SDS011;43570;47.476;19.040;2022-12-29T00:16:32;28.15;;;21.23;;
57730;SDS011;43570;47.476;19.040;2022-12-29T00:18:58;30.23;;;22.83;;
57730;SDS011;43570;47.476;19.040;2022-12-29T00:21:24;29.15;;;23.17;;
57730;SDS011;43570;47.476;19.040;2022-12-29T00:24:12;27.83;;;21.83;;
57730;SDS011;43570;47.476;19.040;2022-12-29T00:29:47;28.33;;;22.62;;
57730;SDS011;43570;47.476;19.040;2022-12-29T00:32:34;31.48;;;24.45;;
57730;SDS011;43570;47.476;19.040;2022-12-29T00:38:29;26.55;;;22.73;;
57730;SDS011;43570;47.476;19.040;2022-12-29T00:41:15;28.90;;;22.33;;
57730;SDS011;43570;47.476;19.040;2022-12-29T00:43:59;27.42;;;22.23;;
57730;SDS011;43570;47.476;19.040;2022-12-29T00:46:33;29.33;;;21.75;;
57730;SDS011;43570;47.476;19.040;2022-12-29T00:48:59;29.10;;;22.00;;
57730;SDS011;43570;47.476;19.040;2022-12-29T00:51:44;26.90;;;22.25;;
57730;SDS011;43570;47.476;19.040;2022-12-29T00:54:09;27.10;;;22.15;;
57730;SDS011;43570;47.476;19.040;2022-12-29T00:56:35;28.65;;;22.15;;
57730;SDS011;43570;47.476;19.040;2022-12-29T00:59:04;28.10;;;21.75;;
57730;SDS011;43570;47.476;19.040;2022-12-29T01:01:32;26.27;;;22.40;;
57730;SDS011;43570;47.476;19.040;2022-12-29T01:03:58;29.42;;;21.60;;
57730;SDS011;43570;47.476;19.040;2022-12-29T01:06:24;24.98;;;21.83;;
57730;SDS011;43570;47.476;19.040;2022-12-29T01:08:50;29.67;;;22.37;;
57730;SDS011;43570;47.476;19.040;2022-12-29T01:11:36;28.95;;;22.10;;
57730;SDS011;43570;47.476;19.040;2022-12-29T01:14:02;29.02;;;21.87;;
57730;SDS011;43570;47.476;19.040;2022-12-29T01:16:27;26.87;;;21.77;;
57730;SDS011;43570;47.476;19.040;2022-12-29T01:18:52;28.52;;;22.37;;
57730;SDS011;43570;47.476;19.040;2022-12-29T01:21:18;27.48;;;22.40;;
57730;SDS011;43570;47.476;19.040;2022-12-29T01:23:44;25.48;;;21.45;;
57730;SDS011;43570;47.476;19.040;2022-12-29T01:26:10;24.35;;;21.73;;
57730;SDS011;43570;47.476;19.040;2022-12-29T01:28:36;28.98;;;21.48;;
57730;SDS011;43570;47.476;19.040;2022-12-29T01:31:03;26.37;;;21.55;;
57730;SDS011;43570;47.476;19.040;2022-12-29T01:33:29;26.40;;;21.48;;
57730;SDS011;43570;47.476;19.040;2022-12-29T01:35:59;28.20;;;22.35;;
57730;SDS011;43570;47.476;19.040;2022-12-29T01:38:32;25.25;;;21.17;;
57730;SDS011;43570;47.476;19.040;2022-12-29T01:40:57;28.20;;;21.20;;
57730;SDS011;43570;47.476;19.040;2022-12-29T01:43:39;25.67;;;21.08;;
57730;SDS011;43570;47.476;19.040;2022-12-29T01:46:13;26.92;;;22.33;;
57730;SDS011;43570;47.476;19.040;2022-12-29T01:48:46;29.40;;;22.70;;
57730;SDS011;43570;47.476;19.040;2022-12-29T01:51:12;25.75;;;22.33;;
57730;SDS011;43570;47.476;19.040;2022-12-29T01:53:38;29.12;;;23.10;;
57730;SDS011;43570;47.476;19.040;2022-12-29T01:56:04;28.38;;;22.48;;
57730;SDS011;43570;47.476;19.040;2022-12-29T01:58:32;27.83;;;21.48;;
57730;SDS011;43570;47.476;19.040;2022-12-29T02:00:59;26.55;;;21.83;;
57730;SDS011;43570;47.476;19.040;2022-12-29T02:03:25;26.62;;;22.23;;
57730;SDS011;43570;47.476;19.040;2022-12-29T02:06:08;26.50;;;22.70;;
57730;SDS011;43570;47.476;19.040;2022-12-29T02:08:36;28.90;;;21.40;;
57730;SDS011;43570;47.476;19.040;2022-12-29T02:11:03;27.15;;;22.45;;
57730;SDS011;43570;47.476;19.040;2022-12-29T02:13:28;25.80;;;21.90;;
57730;SDS011;43570;47.476;19.040;2022-12-29T02:19:05;26.65;;;22.60;;
57730;SDS011;43570;47.476;19.040;2022-12-29T02:41:34;25.85;;;21.40;;
57730;SDS011;43570;47.476;19.040;2022-12-29T02:44:27;26.45;;;20.67;;
57730;SDS011;43570;47.476;19.040;2022-12-29T02:47:14;26.00;;;21.73;;
57730;SDS011;43570;47.476;19.040;2022-12-29T02:49:48;28.17;;;20.50;;
57730;SDS011;43570;47.476;19.040;2022-12-29T02:52:30;23.92;;;20.12;;
57730;SDS011;43570;47.476;19.040;2022-12-29T02:55:01;26.92;;;21.20;;
57730;SDS011;43570;47.476;19.040;2022-12-29T02:59:52;29.00;;;21.23;;
57730;SDS011;43570;47.476;19.040;2022-12-29T03:02:33;26.83;;;21.42;;
57730;SDS011;43570;47.476;19.040;2022-12-29T03:05:35;25.52;;;20.42;;
57730;SDS011;43570;47.476;19.040;2022-12-29T03:08:30;30.67;;;23.02;;
57730;SDS011;43570;47.476;19.040;2022-12-29T03:11:13;26.65;;;20.58;;
57730;SDS011;43570;47.476;19.040;2022-12-29T03:14:01;26.12;;;21.50;;
57730;SDS011;43570;47.476;19.040;2022-12-29T03:16:53;25.23;;;20.90;;
57730;SDS011;43570;47.476;19.040;2022-12-29T03:19:23;27.45;;;21.48;;
57730;SDS011;43570;47.476;19.040;2022-12-29T03:21:56;25.60;;;20.88;;
57730;SDS011;43570;47.476;19.040;2022-12-29T03:24:47;27.35;;;21.15;;
57730;SDS011;43570;47.476;19.040;2022-12-29T03:27:20;27.73;;;21.55;;
57730;SDS011;43570;47.476;19.040;2022-12-29T03:29:49;27.90;;;21.40;;
57730;SDS011;43570;47.476;19.040;2022-12-29T03:32:19;26.45;;;20.50;;
57730;SDS011;43570;47.476;19.040;2022-12-29T03:34:47;25.10;;;21.00;;
57730;SDS011;43570;47.476;19.040;2022-12-29T03:37:14;25.15;;;20.65;;
57730;SDS011;43570;47.476;19.040;2022-12-29T03:39:42;25.90;;;20.92;;
57730;SDS011;43570;47.476;19.040;2022-12-29T03:42:10;26.60;;;21.08;;
57730;SDS011;43570;47.476;19.040;2022-12-29T03:44:40;26.00;;;21.20;;
57730;SDS011;43570;47.476;19.040;2022-12-29T03:47:07;24.35;;;21.37;;
57730;SDS011;43570;47.476;19.040;2022-12-29T03:49:33;26.75;;;21.45;;
57730;SDS011;43570;47.476;19.040;2022-12-29T03:51:58;24.83;;;20.95;;
57730;SDS011;43570;47.476;19.040;2022-12-29T03:54:24;24.35;;;20.12;;
57730;SDS011;43570;47.476;19.040;2022-12-29T03:56:49;26.02;;;21.12;;
57730;SDS011;43570;47.476;19.040;2022-12-29T03:59:15;26.35;;;21.52;;
57730;SDS011;43570;47.476;19.040;2022-12-29T04:01:40;24.40;;;20.60;;
57730;SDS011;43570;47.476;19.040;2022-12-29T04:04:06;26.20;;;21.30;;
57730;SDS011;43570;47.476;19.040;2022-12-29T04:06:31;25.98;;;21.08;;
57730;SDS011;43570;47.476;19.040;2022-12-29T04:08:57;25.83;;;20.98;;
57730;SDS011;43570;47.476;19.040;2022-12-29T04:11:22;26.42;;;20.92;;
57730;SDS011;43570;47.476;19.040;2022-12-29T04:13:48;27.08;;;20.92;;
57730;SDS011;43570;47.476;19.040;2022-12-29T04:16:13;25.42;;;20.95;;
57730;SDS011;43570;47.476;19.040;2022-12-29T04:18:39;25.60;;;21.17;;
57730;SDS011;43570;47.476;19.040;2022-12-29T04:21:04;24.30;;;20.95;;
57730;SDS011;43570;47.476;19.040;2022-12-29T04:23:31;27.67;;;21.73;;
57730;SDS011;43570;47.476;19.040;2022-12-29T04:25:58;27.90;;;22.10;;
57730;SDS011;43570;47.476;19.040;2022-12-29T04:28:24;27.80;;;22.65;;
57730;SDS011;43570;47.476;19.040;2022-12-29T04:30:49;27.08;;;22.60;;
57730;SDS011;43570;47.476;19.040;2022-12-29T04:33:15;26.98;;;22.87;;
57730;SDS011;43570;47.476;19.040;2022-12-29T04:35:41;25.50;;;22.30;;
57730;SDS011;43570;47.476;19.040;2022-12-29T04:38:08;28.98;;;22.42;;
57730;SDS011;43570;47.476;19.040;2022-12-29T04:40:33;28.17;;;21.85;;
57730;SDS011;43570;47.476;19.040;2022-12-29T04:42:58;25.48;;;22.17;;
57730;SDS011;43570;47.476;19.040;2022-12-29T04:45:24;27.15;;;22.42;;
57730;SDS011;43570;47.476;19.040;2022-12-29T04:47:49;26.80;;;21.20;;
57730;SDS011;43570;47.476;19.040;2022-12-29T04:50:14;27.48;;;22.15;;
57730;SDS011;43570;47.476;19.040;2022-12-29T04:52:40;26.65;;;22.77;;
57730;SDS011;43570;47.476;19.040;2022-12-29T04:55:05;28.45;;;22.17;;
57730;SDS011;43570;47.476;19.040;2022-12-29T04:57:31;26.83;;;22.15;;
57730;SDS011;43570;47.476;19.040;2022-12-29T04:59:57;27.10;;;21.85;;
57730;SDS011;43570;47.476;19.040;2022-12-29T05:02:22;27.50;;;22.15;;
57730;SDS011;43570;47.476;19.040;2022-12-29T05:04:48;27.77;;;22.80;;
57730;SDS011;43570;47.476;19.040;2022-12-29T05:07:14;29.00;;;23.17;;
57730;SDS011;43570;47.476;19.040;2022-12-29T05:09:39;26.67;;;23.77;;
57730;SDS011;43570;47.476;19.040;2022-12-29T05:12:05;27.30;;;21.95;;
57730;SDS011;43570;47.476;19.040;2022-12-29T05:14:31;26.30;;;23.12;;
57730;SDS011;43570;47.476;19.040;2022-12-29T05:16:56;28.65;;;22.80;;
57730;SDS011;43570;47.476;19.040;2022-12-29T05:19:22;30.15;;;23.02;;
57730;SDS011;43570;47.476;19.040;2022-12-29T05:21:47;30.23;;;23.35;;
57730;SDS011;43570;47.476;19.040;2022-12-29T05:24:13;30.50;;;24.67;;
57730;SDS011;43570;47.476;19.040;2022-12-29T05:26:38;27.30;;;24.30;;
57730;SDS011;43570;47.476;19.040;2022-12-29T05:29:04;28.95;;;24.63;;
57730;SDS011;43570;47.476;19.040;2022-12-29T05:31:29;28.23;;;23.60;;
57730;SDS011;43570;47.476;19.040;2022-12-29T05:33:55;30.25;;;24.55;;
57730;SDS011;43570;47.476;19.040;2022-12-29T05:36:20;31.35;;;25.77;;
57730;SDS011;43570;47.476;19.040;2022-12-29T05:38:45;31.92;;;25.70;;
57730;SDS011;43570;47.476;19.040;2022-12-29T05:41:11;29.52;;;26.30;;
57730;SDS011;43570;47.476;19.040;2022-12-29T05:43:36;31.87;;;26.42;;
57730;SDS011;43570;47.476;19.040;2022-12-29T05:46:02;31.48;;;26.52;;
57730;SDS011;43570;47.476;19.040;2022-12-29T05:48:28;28.92;;;24.98;;
57730;SDS011;43570;47.476;19.040;2022-12-29T05:50:53;32.30;;;26.67;;
57730;SDS011;43570;47.476;19.040;2022-12-29T05:53:19;30.05;;;26.27;;
57730;SDS011;43570;47.476;19.040;2022-12-29T05:55:46;32.80;;;26.92;;
57730;SDS011;43570;47.476;19.040;2022-12-29T05:58:12;32.42;;;26.55;;
57730;SDS011;43570;47.476;19.040;2022-12-29T06:00:37;35.50;;;28.55;;
57730;SDS011;43570;47.476;19.040;2022-12-29T06:03:03;36.28;;;27.42;;
57730;SDS011;43570;47.476;19.040;2022-12-29T06:05:28;32.17;;;27.58;;
57730;SDS011;43570;47.476;19.040;2022-12-29T06:07:54;31.67;;;27.15;;
57730;SDS011;43570;47.476;19.040;2022-12-29T06:10:19;34.33;;;27.83;;
57730;SDS011;43570;47.476;19.040;2022-12-29T06:12:45;32.80;;;27.45;;
57730;SDS011;43570;47.476;19.040;2022-12-29T06:15:11;36.13;;;27.98;;
57730;SDS011;43570;47.476;19.040;2022-12-29T06:17:36;34.85;;;27.92;;
57730;SDS011;43570;47.476;19.040;2022-12-29T06:20:02;33.58;;;27.37;;
57730;SDS011;43570;47.476;19.040;2022-12-29T06:22:28;33.97;;;27.37;;
57730;SDS011;43570;47.476;19.040;2022-12-29T06:24:53;32.05;;;27.37;;
57730;SDS011;43570;47.476;19.040;2022-12-29T06:27:18;34.05;;;28.15;;
57730;SDS011;43570;47.476;19.040;2022-12-29T06:29:44;32.70;;;27.23;;
57730;SDS011;43570;47.476;19.040;2022-12-29T06:32:09;34.33;;;28.30;;
57730;SDS011;43570;47.476;19.040;2022-12-29T06:34:35;31.60;;;26.83;;
57730;SDS011;43570;47.476;19.040;2022-12-29T06:37:01;34.60;;;27.87;;
57730;SDS011;43570;47.476;19.040;2022-12-29T06:39:26;34.85;;;29.83;;
57730;SDS011;43570;47.476;19.040;2022-12-29T06:41:52;37.33;;;30.67;;
57730;SDS011;43570;47.476;19.040;2022-12-29T06:44:18;36.40;;;29.55;;
57730;SDS011;43570;47.476;19.040;2022-12-29T06:46:44;37.38;;;29.50;;
57730;SDS011;43570;47.476;19.040;2022-12-29T06:49:10;36.72;;;28.73;;
57730;SDS011;43570;47.476;19.040;2022-12-29T06:51:35;33.33;;;28.38;;
57730;SDS011;43570;47.476;19.040;2022-12-29T06:54:01;34.00;;;28.60;;
57730;SDS011;43570;47.476;19.040;2022-12-29T06:56:26;34.67;;;28.25;;
57730;SDS011;43570;47.476;19.040;2022-12-29T06:58:51;37.58;;;27.77;;
57730;SDS011;43570;47.476;19.040;2022-12-29T07:01:17;33.83;;;28.85;;
57730;SDS011;43570;47.476;19.040;2022-12-29T07:03:42;36.42;;;29.00;;
57730;SDS011;43570;47.476;19.040;2022-12-29T07:06:08;32.13;;;26.50;;
57730;SDS011;43570;47.476;19.040;2022-12-29T07:08:34;32.72;;;27.17;;
57730;SDS011;43570;47.476;19.040;2022-12-29T07:10:59;32.55;;;26.98;;
57730;SDS011;43570;47.476;19.040;2022-12-29T07:13:24;34.33;;;28.55;;
57730;SDS011;43570;47.476;19.040;2022-12-29T07:15:50;32.45;;;27.62;;
57730;SDS011;43570;47.476;19.040;2022-12-29T07:18:15;35.97;;;28.45;;
57730;SDS011;43570;47.476;19.040;2022-12-29T07:20:41;32.47;;;26.05;;
57730;SDS011;43570;47.476;19.040;2022-12-29T07:23:06;35.60;;;27.05;;
57730;SDS011;43570;47.476;19.040;2022-12-29T07:25:32;33.22;;;27.55;;
57730;SDS011;43570;47.476;19.040;2022-12-29T07:27:57;32.95;;;26.73;;
57730;SDS011;43570;47.476;19.040;2022-12-29T07:30:23;35.08;;;27.40;;
57730;SDS011;43570;47.476;19.040;2022-12-29T07:32:48;33.75;;;26.40;;
57730;SDS011;43570;47.476;19.040;2022-12-29T07:35:13;32.17;;;25.98;;
57730;SDS011;43570;47.476;19.040;2022-12-29T07:37:39;33.03;;;26.02;;
57730;SDS011;43570;47.476;19.040;2022-12-29T07:40:04;33.10;;;26.10;;
57730;SDS011;43570;47.476;19.040;2022-12-29T07:42:30;31.90;;;25.23;;
57730;SDS011;43570;47.476;19.040;2022-12-29T07:44:56;31.77;;;25.75;;
57730;SDS011;43570;47.476;19.040;2022-12-29T07:47:22;34.70;;;26.25;;
57730;SDS011;43570;47.476;19.040;2022-12-29T07:49:47;33.55;;;25.30;;
57730;SDS011;43570;47.476;19.040;2022-12-29T07:52:12;30.58;;;25.37;;
57730;SDS011;43570;47.476;19.040;2022-12-29T07:54:38;30.42;;;24.48;;
57730;SDS011;43570;47.476;19.040;2022-12-29T07:57:03;28.27;;;24.95;;
57730;SDS011;43570;47.476;19.040;2022-12-29T07:59:29;27.90;;;24.87;;
57730;SDS011;43570;47.476;19.040;2022-12-29T08:01:55;28.95;;;23.42;;
57730;SDS011;43570;47.476;19.040;2022-12-29T08:04:21;28.52;;;24.25;;
57730;SDS011;43570;47.476;19.040;2022-12-29T08:06:46;32.28;;;24.80;;
57730;SDS011;43570;47.476;19.040;2022-12-29T08:09:12;28.67;;;24.52;;
57730;SDS011;43570;47.476;19.040;2022-12-29T08:11:37;30.10;;;23.98;;
57730;SDS011;43570;47.476;19.040;2022-12-29T08:14:03;29.48;;;24.63;;
57730;SDS011;43570;47.476;19.040;2022-12-29T08:16:29;31.92;;;25.85;;
57730;SDS011;43570;47.476;19.040;2022-12-29T08:18:54;30.80;;;25.05;;
57730;SDS011;43570;47.476;19.040;2022-12-29T08:21:19;28.38;;;25.10;;
57730;SDS011;43570;47.476;19.040;2022-12-29T08:23:45;32.45;;;25.73;;
57730;SDS011;43570;47.476;19.040;2022-12-29T08:26:10;32.03;;;26.85;;
57730;SDS011;43570;47.476;19.040;2022-12-29T08:28:36;30.92;;;26.05;;
57730;SDS011;43570;47.476;19.040;2022-12-29T08:31:01;34.30;;;27.30;;
57730;SDS011;43570;47.476;19.040;2022-12-29T08:33:28;34.85;;;28.12;;
57730;SDS011;43570;47.476;19.040;2022-12-29T08:36:04;35.83;;;28.45;;
57730;SDS011;43570;47.476;19.040;2022-12-29T08:38:30;33.47;;;28.20;;
57730;SDS011;43570;47.476;19.040;2022-12-29T08:40:56;35.95;;;29.40;;
57730;SDS011;43570;47.476;19.040;2022-12-29T08:43:23;37.67;;;29.83;;
57730;SDS011;43570;47.476;19.040;2022-12-29T08:45:49;40.65;;;30.85;;
57730;SDS011;43570;47.476;19.040;2022-12-29T08:48:14;37.85;;;30.67;;
57730;SDS011;43570;47.476;19.040;2022-12-29T08:50:43;36.72;;;30.90;;
57730;SDS011;43570;47.476;19.040;2022-12-29T08:53:09;36.40;;;30.08;;
57730;SDS011;43570;47.476;19.040;2022-12-29T08:55:34;38.97;;;30.70;;
57730;SDS011;43570;47.476;19.040;2022-12-29T08:58:00;37.38;;;30.80;;
57730;SDS011;43570;47.476;19.040;2022-12-29T09:00:25;41.63;;;31.90;;
57730;SDS011;43570;47.476;19.040;2022-12-29T09:02:51;42.10;;;32.63;;
57730;SDS011;43570;47.476;19.040;2022-12-29T09:05:17;40.08;;;31.65;;
57730;SDS011;43570;47.476;19.040;2022-12-29T09:07:42;43.00;;;34.10;;
57730;SDS011;43570;47.476;19.040;2022-12-29T09:10:07;37.58;;;31.17;;
57730;SDS011;43570;47.476;19.040;2022-12-29T09:12:33;41.47;;;33.03;;
57730;SDS011;43570;47.476;19.040;2022-12-29T09:14:58;38.53;;;32.28;;
57730;SDS011;43570;47.476;19.040;2022-12-29T09:17:24;40.72;;;31.35;;
57730;SDS011;43570;47.476;19.040;2022-12-29T09:20:20;38.63;;;30.65;;
57730;SDS011;43570;47.476;19.040;2022-12-29T09:22:45;36.95;;;29.27;;
57730;SDS011;43570;47.476;19.040;2022-12-29T09:25:11;37.90;;;30.45;;
57730;SDS011;43570;47.476;19.040;2022-12-29T09:27:37;36.25;;;29.90;;
57730;SDS011;43570;47.476;19.040;2022-12-29T09:30:03;36.63;;;29.60;;
57730;SDS011;43570;47.476;19.040;2022-12-29T09:32:30;34.97;;;29.63;;
57730;SDS011;43570;47.476;19.040;2022-12-29T09:34:56;37.80;;;30.35;;
57730;SDS011;43570;47.476;19.040;2022-12-29T09:37:21;37.80;;;30.25;;
57730;SDS011;43570;47.476;19.040;2022-12-29T09:39:46;36.05;;;30.15;;
57730;SDS011;43570;47.476;19.040;2022-12-29T09:42:14;54.92;;;49.35;;
57730;SDS011;43570;47.476;19.040;2022-12-29T09:44:51;36.33;;;31.70;;
57730;SDS011;43570;47.476;19.040;2022-12-29T09:47:20;37.08;;;30.80;;
57730;SDS011;43570;47.476;19.040;2022-12-29T09:49:48;39.88;;;31.42;;
57730;SDS011;43570;47.476;19.040;2022-12-29T09:52:16;39.25;;;31.87;;
57730;SDS011;43570;47.476;19.040;2022-12-29T09:54:55;41.27;;;30.43;;
57730;SDS011;43570;47.476;19.040;2022-12-29T09:57:24;37.00;;;30.98;;
57730;SDS011;43570;47.476;19.040;2022-12-29T10:00:05;36.78;;;30.92;;
57730;SDS011;43570;47.476;19.040;2022-12-29T10:19:12;40.05;;;33.50;;
57730;SDS011;43570;47.476;19.040;2022-12-29T10:22:17;40.60;;;32.55;;
57730;SDS011;43570;47.476;19.040;2022-12-29T10:24:49;37.83;;;32.50;;
57730;SDS011;43570;47.476;19.040;2022-12-29T10:27:16;39.38;;;32.67;;
57730;SDS011;43570;47.476;19.040;2022-12-29T10:29:48;40.90;;;33.60;;
57730;SDS011;43570;47.476;19.040;2022-12-29T10:32:37;40.70;;;32.17;;
57730;SDS011;43570;47.476;19.040;2022-12-29T10:40:16;39.67;;;33.08;;
57730;SDS011;43570;47.476;19.040;2022-12-29T10:42:46;37.40;;;31.17;;
57730;SDS011;43570;47.476;19.040;2022-12-29T10:45:16;41.05;;;31.95;;
57730;SDS011;43570;47.476;19.040;2022-12-29T10:48:18;35.72;;;30.23;;
57730;SDS011;43570;47.476;19.040;2022-12-29T10:50:37;36.40;;;30.75;;
57730;SDS011;43570;47.476;19.040;2022-12-29T10:53:07;35.90;;;29.85;;
57730;SDS011;43570;47.476;19.040;2022-12-29T10:55:41;34.80;;;29.20;;
57730;SDS011;43570;47.476;19.040;2022-12-29T10:58:07;34.22;;;30.62;;
57730;SDS011;43570;47.476;19.040;2022-12-29T11:00:36;36.70;;;30.15;;
57730;SDS011;43570;47.476;19.040;2022-12-29T11:06:12;31.35;;;27.30;;
57730;SDS011;43570;47.476;19.040;2022-12-29T11:08:42;30.30;;;27.02;;
57730;SDS011;43570;47.476;19.040;2022-12-29T11:11:12;31.87;;;28.48;;
57730;SDS011;43570;47.476;19.040;2022-12-29T11:13:55;32.55;;;28.80;;
57730;SDS011;43570;47.476;19.040;2022-12-29T11:16:29;30.45;;;27.25;;
57730;SDS011;43570;47.476;19.040;2022-12-29T11:18:58;32.33;;;27.40;;
57730;SDS011;43570;47.476;19.040;2022-12-29T11:24:04;33.72;;;29.27;;
57730;SDS011;43570;47.476;19.040;2022-12-29T11:26:33;30.25;;;26.90;;
57730;SDS011;43570;47.476;19.040;2022-12-29T11:31:44;31.42;;;28.02;;
57730;SDS011;43570;47.476;19.040;2022-12-29T11:34:17;32.45;;;29.05;;
57730;SDS011;43570;47.476;19.040;2022-12-29T11:36:44;32.28;;;28.90;;
57730;SDS011;43570;47.476;19.040;2022-12-29T11:39:23;33.40;;;28.98;;
57730;SDS011;43570;47.476;19.040;2022-12-29T11:41:52;32.75;;;29.27;;
57730;SDS011;43570;47.476;19.040;2022-12-29T11:44:18;33.22;;;29.65;;
57730;SDS011;43570;47.476;19.040;2022-12-29T11:46:44;31.48;;;28.15;;
57730;SDS011;43570;47.476;19.040;2022-12-29T11:49:18;33.10;;;29.37;;
57730;SDS011;43570;47.476;19.040;2022-12-29T11:51:48;32.53;;;29.08;;
57730;SDS011;43570;47.476;19.040;2022-12-29T11:54:17;33.55;;;29.67;;
57730;SDS011;43570;47.476;19.040;2022-12-29T11:56:46;32.67;;;29.23;;
57730;SDS011;43570;47.476;19.040;2022-12-29T11:59:24;31.92;;;28.50;;
57730;SDS011;43570;47.476;19.040;2022-12-29T12:02:00;34.83;;;30.92;;
57730;SDS011;43570;47.476;19.040;2022-12-29T12:04:53;32.42;;;29.12;;
57730;SDS011;43570;47.476;19.040;2022-12-29T12:07:42;32.55;;;28.25;;
57730;SDS011;43570;47.476;19.040;2022-12-29T12:10:27;32.28;;;28.67;;
57730;SDS011;43570;47.476;19.040;2022-12-29T12:12:58;35.80;;;29.75;;
57730;SDS011;43570;47.476;19.040;2022-12-29T12:15:36;32.83;;;29.42;;
57730;SDS011;43570;47.476;19.040;2022-12-29T12:18:08;33.05;;;29.55;;
57730;SDS011;43570;47.476;19.040;2022-12-29T12:20:50;34.00;;;30.30;;
57730;SDS011;43570;47.476;19.040;2022-12-29T12:31:17;34.03;;;30.17;;
57730;SDS011;43570;47.476;19.040;2022-12-29T12:33:47;34.33;;;30.33;;
57730;SDS011;43570;47.476;19.040;2022-12-29T12:36:24;34.67;;;30.52;;
57730;SDS011;43570;47.476;19.040;2022-12-29T12:42:00;34.40;;;30.75;;
57730;SDS011;43570;47.476;19.040;2022-12-29T12:55:18;34.15;;;29.42;;
57730;SDS011;43570;47.476;19.040;2022-12-29T13:07:20;36.38;;;32.58;;
57730;SDS011;43570;47.476;19.040;2022-12-29T13:10:35;38.78;;;33.72;;
57730;SDS011;43570;47.476;19.040;2022-12-29T13:12:52;37.63;;;33.53;;
57730;SDS011;43570;47.476;19.040;2022-12-29T13:23:18;39.35;;;33.22;;
57730;SDS011;43570;47.476;19.040;2022-12-29T13:31:07;36.75;;;30.80;;
57730;SDS011;43570;47.476;19.040;2022-12-29T13:33:43;36.83;;;32.00;;
57730;SDS011;43570;47.476;19.040;2022-12-29T13:36:18;34.28;;;30.65;;
57730;SDS011;43570;47.476;19.040;2022-12-29T13:38:48;34.33;;;30.70;;
57730;SDS011;43570;47.476;19.040;2022-12-29T13:44:02;36.70;;;32.60;;
57730;SDS011;43570;47.476;19.040;2022-12-29T13:46:29;33.58;;;29.90;;
57730;SDS011;43570;47.476;19.040;2022-12-29T13:49:03;35.13;;;31.45;;
57730;SDS011;43570;47.476;19.040;2022-12-29T13:51:31;34.15;;;30.50;;
57730;SDS011;43570;47.476;19.040;2022-12-29T13:59:36;36.92;;;32.92;;
57730;SDS011;43570;47.476;19.040;2022-12-29T14:02:21;38.05;;;33.88;;
57730;SDS011;43570;47.476;19.040;2022-12-29T14:05:02;38.90;;;34.30;;
57730;SDS011;43570;47.476;19.040;2022-12-29T14:07:35;38.80;;;34.63;;
57730;SDS011;43570;47.476;19.040;2022-12-29T14:10:02;39.78;;;35.50;;
57730;SDS011;43570;47.476;19.040;2022-12-29T14:12:29;40.42;;;36.00;;
57730;SDS011;43570;47.476;19.040;2022-12-29T14:15:02;39.50;;;33.77;;
57730;SDS011;43570;47.476;19.040;2022-12-29T14:18:02;42.88;;;35.60;;
57730;SDS011;43570;47.476;19.040;2022-12-29T14:20:30;43.03;;;35.97;;
57730;SDS011;43570;47.476;19.040;2022-12-29T14:23:25;41.95;;;35.75;;
57730;SDS011;43570;47.476;19.040;2022-12-29T14:28:32;40.12;;;34.83;;
57730;SDS011;43570;47.476;19.040;2022-12-29T14:31:00;44.20;;;36.72;;
57730;SDS011;43570;47.476;19.040;2022-12-29T14:36:40;40.53;;;35.05;;
57730;SDS011;43570;47.476;19.040;2022-12-29T14:39:32;45.17;;;36.05;;
57730;SDS011;43570;47.476;19.040;2022-12-29T14:47:27;44.35;;;38.55;;
57730;SDS011;43570;47.476;19.040;2022-12-29T14:53:02;44.35;;;37.25;;
57730;SDS011;43570;47.476;19.040;2022-12-29T14:57:59;42.67;;;37.83;;
57730;SDS011;43570;47.476;19.040;2022-12-29T15:00:27;43.92;;;37.85;;
57730;SDS011;43570;47.476;19.040;2022-12-29T15:03:04;43.17;;;36.30;;
57730;SDS011;43570;47.476;19.040;2022-12-29T15:05:41;43.38;;;38.67;;
57730;SDS011;43570;47.476;19.040;2022-12-29T15:08:09;43.33;;;38.10;;
57730;SDS011;43570;47.476;19.040;2022-12-29T15:10:58;42.50;;;37.63;;
57730;SDS011;43570;47.476;19.040;2022-12-29T15:13:37;43.38;;;36.75;;
57730;SDS011;43570;47.476;19.040;2022-12-29T15:16:04;41.78;;;37.03;;
57730;SDS011;43570;47.476;19.040;2022-12-29T15:18:31;44.42;;;38.63;;
57730;SDS011;43570;47.476;19.040;2022-12-29T15:21:01;44.70;;;38.72;;
57730;SDS011;43570;47.476;19.040;2022-12-29T15:23:29;46.80;;;39.50;;
57730;SDS011;43570;47.476;19.040;2022-12-29T15:26:00;48.30;;;40.72;;
57730;SDS011;43570;47.476;19.040;2022-12-29T15:28:27;46.25;;;38.60;;
57730;SDS011;43570;47.476;19.040;2022-12-29T15:31:02;43.92;;;38.67;;
57730;SDS011;43570;47.476;19.040;2022-12-29T15:33:29;46.22;;;39.15;;
57730;SDS011;43570;47.476;19.040;2022-12-29T15:35:55;46.20;;;39.60;;
57730;SDS011;43570;47.476;19.040;2022-12-29T15:40:51;49.50;;;40.15;;
57730;SDS011;43570;47.476;19.040;2022-12-29T15:45:53;50.88;;;40.53;;
57730;SDS011;43570;47.476;19.040;2022-12-29T15:48:20;47.95;;;39.92;;
57730;SDS011;43570;47.476;19.040;2022-12-29T15:50:47;48.55;;;41.70;;
57730;SDS011;43570;47.476;19.040;2022-12-29T15:53:23;47.60;;;40.67;;
57730;SDS011;43570;47.476;19.040;2022-12-29T15:55:53;48.83;;;42.45;;
57730;SDS011;43570;47.476;19.040;2022-12-29T15:58:21;46.35;;;40.85;;
57730;SDS011;43570;47.476;19.040;2022-12-29T16:00:52;46.97;;;40.38;;
57730;SDS011;43570;47.476;19.040;2022-12-29T16:03:22;48.20;;;42.97;;
57730;SDS011;43570;47.476;19.040;2022-12-29T16:05:56;48.58;;;41.95;;
57730;SDS011;43570;47.476;19.040;2022-12-29T16:08:41;46.00;;;40.22;;
57730;SDS011;43570;47.476;19.040;2022-12-29T16:11:16;49.20;;;41.13;;
57730;SDS011;43570;47.476;19.040;2022-12-29T16:13:47;53.80;;;44.95;;
57730;SDS011;43570;47.476;19.040;2022-12-29T16:16:20;51.15;;;43.22;;
57730;SDS011;43570;47.476;19.040;2022-12-29T16:18:47;50.65;;;43.05;;
57730;SDS011;43570;47.476;19.040;2022-12-29T16:21:16;49.65;;;42.85;;
57730;SDS011;43570;47.476;19.040;2022-12-29T16:23:46;52.65;;;43.87;;
57730;SDS011;43570;47.476;19.040;2022-12-29T16:26:17;53.20;;;42.92;;
57730;SDS011;43570;47.476;19.040;2022-12-29T16:28:44;50.92;;;44.80;;
57730;SDS011;43570;47.476;19.040;2022-12-29T16:31:21;53.08;;;44.47;;
57730;SDS011;43570;47.476;19.040;2022-12-29T16:33:49;52.60;;;43.90;;
57730;SDS011;43570;47.476;19.040;2022-12-29T16:36:23;55.67;;;44.80;;
57730;SDS011;43570;47.476;19.040;2022-12-29T16:50:39;58.33;;;47.42;;
57730;SDS011;43570;47.476;19.040;2022-12-29T16:53:05;53.83;;;46.37;;